createdAt,value
2022-12-25T00:00:45.003Z,89.05
2022-12-25T00:04:47.656Z,88.94
2022-12-25T00:08:51.712Z,89.43
2022-12-25T00:12:54.309Z,89.49
2022-12-25T00:16:56.927Z,89.50
2022-12-25T00:21:00.787Z,89.21
2022-12-25T00:25:05.378Z,89.63
2022-12-25T00:29:08.044Z,89.98
2022-12-25T00:33:10.703Z,89.66
2022-12-25T00:37:13.320Z,89.78
2022-12-25T00:41:39.230Z,90.02
2022-12-25T00:45:41.923Z,89.97
2022-12-25T00:49:44.943Z,89.88
2022-12-25T00:53:47.543Z,90.19
2022-12-25T00:57:51.577Z,90.79
2022-12-25T01:01:54.249Z,90.92
2022-12-25T01:05:59.545Z,91.13
2022-12-25T01:10:20.735Z,91.26
2022-12-25T01:14:24.739Z,91.38
2022-12-25T01:18:27.359Z,91.80
2022-12-25T01:22:30.001Z,91.49
2022-12-25T01:26:32.623Z,91.54
2022-12-25T01:30:36.634Z,91.34
2022-12-25T01:34:39.458Z,91.22
2022-12-25T01:38:42.176Z,90.71
2022-12-25T01:42:44.796Z,91.08
2022-12-25T01:46:48.747Z,90.41
2022-12-25T01:50:55.404Z,90.34
2022-12-25T01:54:59.480Z,90.44
2022-12-25T01:59:03.898Z,90.45
2022-12-25T02:03:07.952Z,90.23
2022-12-25T02:07:14.353Z,90.54
2022-12-25T02:11:30.903Z,90.02
2022-12-25T02:15:41.926Z,89.88
2022-12-25T02:20:14.759Z,89.92
2022-12-25T02:24:43.006Z,90.01
2022-12-25T02:28:54.094Z,90.05
2022-12-25T02:33:19.796Z,90.02
2022-12-25T02:37:29.024Z,89.98
2022-12-25T02:41:36.806Z,90.12
2022-12-25T02:46:03.130Z,90.18
2022-12-25T02:50:25.428Z,90.08
2022-12-25T02:54:50.875Z,90.30
2022-12-25T02:59:11.383Z,90.15
2022-12-25T03:03:34.743Z,89.94
2022-12-25T03:07:40.858Z,90.41
2022-12-25T03:11:45.551Z,90.27
2022-12-25T03:16:07.131Z,90.93
2022-12-25T03:20:29.677Z,91.00
2022-12-25T03:24:50.153Z,91.43
2022-12-25T03:28:52.762Z,92.49
2022-12-25T03:33:23.356Z,92.86
2022-12-25T03:37:51.065Z,92.98
2022-12-25T03:42:17.386Z,93.16
2022-12-25T03:46:39.570Z,93.60
2022-12-25T03:51:03.566Z,93.15
2022-12-25T03:55:29.290Z,92.96
2022-12-25T03:59:49.316Z,92.64
2022-12-25T04:04:09.406Z,92.70
2022-12-25T04:08:29.688Z,92.35
2022-12-25T04:12:51.164Z,92.54
2022-12-25T04:17:11.243Z,92.32
2022-12-25T04:21:31.267Z,92.26
2022-12-25T04:25:51.350Z,91.95
2022-12-25T04:30:12.718Z,92.15
2022-12-25T04:34:32.915Z,91.69
2022-12-25T04:38:36.631Z,91.57
2022-12-25T04:42:39.235Z,90.94
2022-12-25T04:46:43.212Z,91.11
2022-12-25T04:50:45.984Z,91.19
2022-12-25T04:54:48.587Z,91.32
2022-12-25T04:58:51.251Z,91.31
2022-12-25T05:02:55.334Z,91.13
2022-12-25T05:06:57.980Z,91.48
2022-12-25T05:11:00.671Z,91.20
2022-12-25T05:15:03.307Z,91.44
2022-12-25T05:19:07.315Z,91.21
2022-12-25T05:23:11.529Z,91.52
2022-12-25T05:27:15.055Z,92.17
2022-12-25T05:31:18.852Z,92.47
2022-12-25T05:35:22.824Z,92.47
2022-12-25T05:39:25.678Z,92.60
2022-12-25T05:43:29.082Z,92.41
2022-12-25T05:47:31.692Z,92.65
2022-12-25T05:51:35.744Z,92.71
2022-12-25T05:55:39.827Z,92.79
2022-12-25T05:59:42.458Z,93.23
2022-12-25T06:03:45.177Z,94.02
2022-12-25T06:07:49.452Z,93.48
2022-12-25T06:11:52.113Z,94.09
2022-12-25T06:15:54.750Z,94.30
2022-12-25T06:19:57.459Z,94.16
2022-12-25T06:24:02.007Z,93.82
2022-12-25T06:28:05.071Z,93.93
2022-12-25T06:32:07.757Z,93.86
2022-12-25T06:36:15.207Z,93.61
2022-12-25T06:40:19.923Z,93.81
2022-12-25T06:44:22.703Z,93.64
2022-12-25T06:48:25.292Z,93.53
2022-12-25T06:52:27.850Z,93.59
2022-12-25T06:56:32.921Z,93.63
2022-12-25T07:00:35.536Z,93.51
2022-12-25T07:04:41.686Z,93.42
2022-12-25T07:08:44.450Z,93.51
2022-12-25T07:12:48.515Z,93.69
2022-12-25T07:16:51.215Z,93.10
2022-12-25T07:20:55.808Z,93.17
2022-12-25T07:24:58.470Z,93.25
2022-12-25T07:29:02.417Z,94.74
2022-12-25T07:33:05.267Z,96.04
2022-12-25T07:37:07.872Z,95.84
2022-12-25T07:41:11.128Z,95.94
2022-12-25T07:45:15.113Z,94.52
2022-12-25T07:49:17.790Z,93.78
2022-12-25T07:53:20.397Z,93.50
2022-12-25T07:57:22.982Z,93.11
2022-12-25T08:01:28.545Z,93.03
2022-12-25T08:05:33.689Z,92.99
2022-12-25T08:09:36.683Z,92.67
2022-12-25T08:13:39.322Z,91.89
2022-12-25T08:17:43.309Z,92.21
2022-12-25T08:21:46.014Z,91.77
2022-12-25T08:25:48.648Z,91.68
2022-12-25T08:29:51.289Z,91.10
2022-12-25T08:33:57.389Z,91.04
2022-12-25T08:38:00.053Z,90.30
2022-12-25T08:42:02.765Z,90.13
2022-12-25T08:46:07.233Z,88.39
2022-12-25T08:50:11.755Z,88.43
2022-12-25T08:54:14.691Z,88.43
2022-12-25T08:58:17.702Z,87.74
2022-12-25T09:02:20.467Z,88.25
2022-12-25T09:06:24.624Z,88.32
2022-12-25T09:10:27.402Z,88.22
2022-12-25T09:14:31.281Z,88.09
2022-12-25T09:18:33.936Z,88.14
2022-12-25T09:22:37.910Z,88.57
2022-12-25T09:26:40.829Z,88.93
2022-12-25T09:30:43.577Z,88.64
2022-12-25T09:34:46.196Z,88.92
2022-12-25T09:38:50.192Z,88.86
2022-12-25T09:42:54.932Z,88.74
2022-12-25T09:47:02.660Z,87.84
2022-12-25T09:51:11.113Z,87.79
2022-12-25T09:55:20.488Z,87.49
2022-12-25T09:59:27.209Z,86.74
2022-12-25T10:03:43.560Z,86.29
2022-12-25T10:07:53.409Z,86.11
2022-12-25T10:12:15.301Z,86.60
2022-12-25T10:16:29.183Z,85.29
2022-12-25T10:20:44.100Z,85.25
2022-12-25T10:24:50.551Z,85.13
2022-12-25T10:29:01.035Z,84.92
2022-12-25T10:33:03.675Z,83.86
2022-12-25T10:37:06.394Z,83.06
2022-12-25T10:41:20.065Z,81.58
2022-12-25T10:45:24.023Z,79.73
2022-12-25T10:49:30.475Z,79.28
2022-12-25T10:53:40.088Z,76.16
2022-12-25T10:57:46.858Z,76.59
2022-12-25T11:01:55.042Z,76.37
2022-12-25T11:05:58.577Z,77.70
2022-12-25T11:10:05.776Z,77.47
2022-12-25T11:14:18.282Z,74.52
2022-12-25T11:18:23.907Z,73.25
2022-12-25T11:22:28.808Z,72.65
2022-12-25T11:26:37.274Z,71.10
2022-12-25T11:30:41.719Z,69.56
2022-12-25T11:34:48.070Z,68.35
2022-12-25T11:38:51.946Z,68.44
2022-12-25T11:43:04.136Z,67.50
2022-12-25T11:47:18.394Z,66.99
2022-12-25T11:51:24.031Z,67.87
2022-12-25T11:55:37.141Z,66.71
2022-12-25T11:59:47.077Z,65.55
2022-12-25T12:03:50.325Z,65.90
2022-12-25T12:07:58.602Z,64.14
2022-12-25T12:12:09.670Z,64.28
2022-12-25T12:16:12.876Z,63.87
2022-12-25T12:20:29.284Z,63.11
2022-12-25T12:24:37.089Z,63.43
2022-12-25T12:28:46.053Z,64.47
2022-12-25T12:32:53.832Z,63.27
2022-12-25T12:37:04.822Z,62.31
2022-12-25T12:41:10.579Z,61.97
2022-12-25T12:45:19.240Z,61.34
2022-12-25T12:49:24.776Z,61.81
2022-12-25T12:53:32.338Z,64.63
2022-12-25T12:57:40.191Z,67.31
2022-12-25T13:01:52.710Z,70.03
2022-12-25T13:05:58.895Z,70.19
2022-12-25T13:10:10.249Z,69.29
2022-12-25T13:14:20.708Z,68.19
2022-12-25T13:18:23.637Z,67.55
2022-12-25T13:22:31.533Z,67.67
2022-12-25T13:26:34.249Z,67.93
2022-12-25T13:30:38.221Z,67.66
2022-12-25T13:34:43.179Z,66.68
2022-12-25T13:38:47.652Z,65.66
2022-12-25T13:42:51.115Z,65.25
2022-12-25T13:46:55.083Z,64.91
2022-12-25T13:50:59.025Z,65.42
2022-12-25T13:55:05.064Z,69.17
2022-12-25T13:59:07.694Z,71.36
2022-12-25T14:03:20.355Z,70.66
2022-12-25T14:07:25.004Z,69.80
2022-12-25T14:11:30.493Z,72.45
2022-12-25T14:15:34.926Z,72.72
2022-12-25T14:19:39.275Z,71.74
2022-12-25T14:23:45.382Z,73.13
2022-12-25T14:27:52.472Z,72.15
2022-12-25T14:31:58.247Z,72.26
2022-12-25T14:36:02.272Z,74.19
2022-12-25T14:40:07.555Z,75.46
2022-12-25T14:44:35.006Z,75.02
2022-12-25T14:48:37.659Z,75.48
2022-12-25T14:52:45.243Z,75.73
2022-12-25T14:56:49.276Z,75.87
2022-12-25T15:00:56.270Z,76.73
2022-12-25T15:04:58.972Z,77.99
2022-12-25T15:09:06.412Z,79.11
2022-12-25T15:13:08.995Z,80.31
2022-12-25T15:17:19.902Z,80.94
2022-12-25T15:21:27.176Z,81.02
2022-12-25T15:25:31.117Z,81.39
2022-12-25T15:30:08.655Z,81.63
2022-12-25T15:33:58.027Z,82.44
2022-12-25T15:38:00.696Z,82.59
2022-12-25T15:42:14.628Z,82.43
2022-12-25T15:46:18.034Z,82.65
2022-12-25T15:50:21.522Z,82.33
2022-12-25T15:54:24.115Z,83.19
2022-12-25T15:58:28.054Z,83.41
2022-12-25T16:02:30.808Z,83.47
2022-12-25T16:06:33.509Z,83.12
2022-12-25T16:10:38.996Z,83.25
2022-12-25T16:14:44.369Z,83.31
2022-12-25T16:18:47.908Z,83.30
2022-12-25T16:22:50.691Z,83.20
2022-12-25T16:26:53.376Z,83.24
2022-12-25T16:30:57.484Z,83.16
2022-12-25T16:35:00.109Z,83.11
2022-12-25T16:39:03.976Z,83.22
2022-12-25T16:43:06.862Z,83.98
2022-12-25T16:47:10.798Z,83.96
2022-12-25T16:51:15.264Z,84.28
2022-12-25T16:55:18.033Z,84.62
2022-12-25T16:59:20.709Z,84.69
2022-12-25T17:03:24.688Z,84.63
2022-12-25T17:07:27.343Z,84.58
2022-12-25T17:11:30.680Z,84.21
2022-12-25T17:15:33.236Z,83.71
2022-12-25T17:19:37.180Z,83.69
2022-12-25T17:23:40.131Z,83.64
2022-12-25T17:27:42.720Z,83.53
2022-12-25T17:31:45.338Z,83.89
2022-12-25T17:35:49.332Z,84.35
2022-12-25T17:39:51.917Z,84.11
2022-12-25T17:43:54.604Z,84.28
2022-12-25T17:47:57.606Z,84.18
2022-12-25T17:52:01.888Z,84.29
2022-12-25T17:56:05.212Z,84.92
2022-12-25T18:00:09.057Z,88.35
2022-12-25T18:04:11.673Z,91.37
2022-12-25T18:08:16.360Z,89.88
2022-12-25T18:12:18.969Z,84.40
2022-12-25T18:16:24.382Z,83.53
2022-12-25T18:20:27.017Z,83.46
2022-12-25T18:24:31.873Z,83.80
2022-12-25T18:28:35.691Z,84.22
2022-12-25T18:32:38.833Z,84.28
2022-12-25T18:36:41.622Z,84.35
2022-12-25T18:40:47.679Z,84.50
2022-12-25T18:44:50.377Z,84.44
2022-12-25T18:48:53.445Z,84.60
2022-12-25T18:52:56.190Z,84.95
2022-12-25T18:57:06.900Z,84.94
2022-12-25T19:01:15.073Z,85.57
2022-12-25T19:05:18.844Z,89.59
2022-12-25T19:09:21.486Z,88.95
2022-12-25T19:13:25.556Z,87.01
2022-12-25T19:17:31.867Z,86.77
2022-12-25T19:21:34.964Z,86.24
2022-12-25T19:25:40.462Z,86.81
2022-12-25T19:29:44.445Z,87.18
2022-12-25T19:33:47.075Z,87.16
2022-12-25T19:37:49.692Z,86.97
2022-12-25T19:41:52.334Z,86.91
2022-12-25T19:45:56.659Z,86.86
2022-12-25T19:50:03.104Z,87.31
2022-12-25T19:54:07.228Z,88.19
2022-12-25T19:58:10.023Z,88.87
2022-12-25T20:02:14.445Z,88.44
2022-12-25T20:06:23.259Z,88.17
2022-12-25T20:10:26.011Z,88.17
2022-12-25T20:14:28.669Z,88.00
2022-12-25T20:18:32.867Z,88.59
2022-12-25T20:22:35.577Z,88.59
2022-12-25T20:26:39.827Z,88.71
2022-12-25T20:30:42.412Z,88.78
2022-12-25T20:34:46.463Z,88.45
2022-12-25T20:38:49.123Z,89.26
2022-12-25T20:42:51.749Z,89.82
2022-12-25T20:46:54.912Z,89.57
2022-12-25T20:51:08.872Z,88.93
2022-12-25T20:55:11.502Z,88.83
2022-12-25T20:59:14.592Z,88.41
2022-12-25T21:03:17.348Z,88.43
2022-12-25T21:07:21.407Z,88.01
2022-12-25T21:11:24.359Z,88.30
2022-12-25T21:15:27.024Z,88.59
2022-12-25T21:19:29.784Z,88.59
2022-12-25T21:23:34.202Z,87.97
2022-12-25T21:27:36.859Z,88.02
2022-12-25T21:31:53.439Z,88.19
2022-12-25T21:35:56.177Z,87.70
2022-12-25T21:40:00.317Z,87.87
2022-12-25T21:44:03.164Z,87.88
2022-12-25T21:48:06.228Z,88.04
2022-12-25T21:52:08.807Z,88.27
2022-12-25T21:56:12.767Z,88.49
2022-12-25T22:00:15.756Z,88.67
2022-12-25T22:04:19.913Z,88.76
2022-12-25T22:08:22.489Z,88.44
2022-12-25T22:12:43.972Z,88.59
2022-12-25T22:17:04.047Z,88.67
2022-12-25T22:21:06.721Z,89.84
2022-12-25T22:25:10.764Z,90.58
2022-12-25T22:29:14.750Z,90.87
2022-12-25T22:33:17.408Z,91.21
2022-12-25T22:37:20.271Z,90.63
2022-12-25T22:41:23.726Z,90.61
2022-12-25T22:45:29.871Z,91.09
2022-12-25T22:49:32.655Z,91.57
2022-12-25T22:53:36.656Z,91.65
2022-12-25T22:57:40.682Z,92.89
2022-12-25T23:01:45.060Z,93.55
2022-12-25T23:05:54.633Z,93.67
2022-12-25T23:09:57.215Z,93.30
2022-12-25T23:14:17.170Z,93.29
2022-12-25T23:18:38.807Z,93.29
2022-12-25T23:22:58.814Z,93.47
2022-12-25T23:27:01.425Z,93.21
2022-12-25T23:31:04.169Z,93.14
2022-12-25T23:35:09.083Z,93.23
2022-12-25T23:39:11.722Z,93.73
2022-12-25T23:43:14.394Z,93.59
2022-12-25T23:47:17.375Z,93.75
2022-12-25T23:51:21.270Z,93.93
2022-12-25T23:55:23.900Z,94.14
2022-12-25T23:59:27.972Z,94.00
